Terminal Aerodrome Forecast
Issued by NWS Tampa Bay Area, FL

Home | Current Version | Previous Version | Text Only | Print | Product List | Glossary On
Versions: 1 2 3 4 5 6 7 8 9 10 11 12 13 14 15 16 17 18 19 20 21 22 23 24 25 26 27
000
FTUS42 KTBW 210909 AAA
TAFTPA
TAF AMD
KTPA 210909Z 2109/2212 08004KT P6SM VCSH OVC060
     FM211400 12007KT P6SM VCSH SCT025 OVC080
     FM211900 13009KT 6SM SHRA VCTS SCT025CB OVC050
     FM220100 12006KT P6SM VCSH SCT035 OVC100=

USA.gov is the U.S. government's official web portal to all federal, state and local government web resources and services.